sensor_id;sensor_type;location;lat;lon;timestamp;P1;durP1;ratioP1;P2;durP2;ratioP2
71456;SDS011;59263;48.160;11.752;2022-08-07T00:00:20;19.52;;;9.70;;
71456;SDS011;59263;48.160;11.752;2022-08-07T00:02:46;18.23;;;9.53;;
71456;SDS011;59263;48.160;11.752;2022-08-07T00:05:11;18.80;;;9.65;;
71456;SDS011;59263;48.160;11.752;2022-08-07T00:07:36;20.07;;;10.00;;
71456;SDS011;59263;48.160;11.752;2022-08-07T00:10:02;22.00;;;10.13;;
71456;SDS011;59263;48.160;11.752;2022-08-07T00:12:29;17.60;;;9.68;;
71456;SDS011;59263;48.160;11.752;2022-08-07T00:14:55;18.63;;;9.60;;
71456;SDS011;59263;48.160;11.752;2022-08-07T00:17:21;17.48;;;8.93;;
71456;SDS011;59263;48.160;11.752;2022-08-07T00:19:46;18.07;;;9.90;;
71456;SDS011;59263;48.160;11.752;2022-08-07T00:22:12;16.53;;;8.90;;
71456;SDS011;59263;48.160;11.752;2022-08-07T00:24:37;19.30;;;8.37;;
71456;SDS011;59263;48.160;11.752;2022-08-07T00:27:02;16.92;;;8.60;;
71456;SDS011;59263;48.160;11.752;2022-08-07T00:29:28;17.47;;;8.87;;
71456;SDS011;59263;48.160;11.752;2022-08-07T00:31:53;16.00;;;8.10;;
71456;SDS011;59263;48.160;11.752;2022-08-07T00:34:23;18.35;;;8.23;;
71456;SDS011;59263;48.160;11.752;2022-08-07T00:36:49;18.02;;;7.95;;
71456;SDS011;59263;48.160;11.752;2022-08-07T00:39:14;16.70;;;9.00;;
71456;SDS011;59263;48.160;11.752;2022-08-07T00:41:45;16.10;;;8.37;;
71456;SDS011;59263;48.160;11.752;2022-08-07T00:44:12;15.77;;;8.43;;
71456;SDS011;59263;48.160;11.752;2022-08-07T00:46:38;15.50;;;7.97;;
71456;SDS011;59263;48.160;11.752;2022-08-07T00:49:03;17.37;;;8.60;;
71456;SDS011;59263;48.160;11.752;2022-08-07T00:51:28;16.57;;;7.63;;
71456;SDS011;59263;48.160;11.752;2022-08-07T00:53:54;14.70;;;7.65;;
71456;SDS011;59263;48.160;11.752;2022-08-07T00:56:20;14.57;;;7.23;;
71456;SDS011;59263;48.160;11.752;2022-08-07T00:58:46;14.23;;;7.20;;
71456;SDS011;59263;48.160;11.752;2022-08-07T01:01:11;14.57;;;7.33;;
71456;SDS011;59263;48.160;11.752;2022-08-07T01:03:37;13.70;;;7.05;;
71456;SDS011;59263;48.160;11.752;2022-08-07T01:06:03;16.27;;;7.30;;
71456;SDS011;59263;48.160;11.752;2022-08-07T01:08:29;14.35;;;7.38;;
71456;SDS011;59263;48.160;11.752;2022-08-07T01:10:55;16.07;;;7.27;;
71456;SDS011;59263;48.160;11.752;2022-08-07T01:13:21;13.77;;;6.97;;
71456;SDS011;59263;48.160;11.752;2022-08-07T01:15:46;13.30;;;6.90;;
71456;SDS011;59263;48.160;11.752;2022-08-07T01:18:14;16.05;;;6.63;;
71456;SDS011;59263;48.160;11.752;2022-08-07T01:20:41;13.07;;;6.27;;
71456;SDS011;59263;48.160;11.752;2022-08-07T01:23:09;12.60;;;6.20;;
71456;SDS011;59263;48.160;11.752;2022-08-07T01:25:35;11.45;;;6.55;;
71456;SDS011;59263;48.160;11.752;2022-08-07T01:28:01;12.67;;;6.50;;
71456;SDS011;59263;48.160;11.752;2022-08-07T01:30:27;13.68;;;6.63;;
71456;SDS011;59263;48.160;11.752;2022-08-07T01:32:54;12.65;;;6.60;;
71456;SDS011;59263;48.160;11.752;2022-08-07T01:35:19;14.55;;;6.90;;
71456;SDS011;59263;48.160;11.752;2022-08-07T01:37:45;12.93;;;6.43;;
71456;SDS011;59263;48.160;11.752;2022-08-07T01:40:11;11.40;;;6.37;;
71456;SDS011;59263;48.160;11.752;2022-08-07T01:42:38;13.48;;;6.80;;
71456;SDS011;59263;48.160;11.752;2022-08-07T01:45:04;13.30;;;6.63;;
71456;SDS011;59263;48.160;11.752;2022-08-07T01:47:30;12.45;;;6.28;;
71456;SDS011;59263;48.160;11.752;2022-08-07T01:49:55;11.20;;;6.37;;
71456;SDS011;59263;48.160;11.752;2022-08-07T01:52:21;12.10;;;6.03;;
71456;SDS011;59263;48.160;11.752;2022-08-07T01:54:49;11.20;;;6.00;;
71456;SDS011;59263;48.160;11.752;2022-08-07T01:57:20;12.38;;;6.20;;
71456;SDS011;59263;48.160;11.752;2022-08-07T01:59:53;12.65;;;5.55;;
71456;SDS011;59263;48.160;11.752;2022-08-07T02:02:26;12.85;;;5.22;;
71456;SDS011;59263;48.160;11.752;2022-08-07T02:04:57;11.85;;;5.53;;
71456;SDS011;59263;48.160;11.752;2022-08-07T02:07:28;11.30;;;5.60;;
71456;SDS011;59263;48.160;11.752;2022-08-07T02:09:57;11.77;;;5.60;;
71456;SDS011;59263;48.160;11.752;2022-08-07T02:12:25;10.25;;;5.75;;
71456;SDS011;59263;48.160;11.752;2022-08-07T02:14:55;11.13;;;5.07;;
71456;SDS011;59263;48.160;11.752;2022-08-07T02:17:24;13.10;;;5.88;;
71456;SDS011;59263;48.160;11.752;2022-08-07T02:19:50;13.83;;;5.53;;
71456;SDS011;59263;48.160;11.752;2022-08-07T02:22:18;11.98;;;6.05;;
71456;SDS011;59263;48.160;11.752;2022-08-07T02:24:47;11.93;;;5.93;;
71456;SDS011;59263;48.160;11.752;2022-08-07T02:27:17;14.00;;;6.55;;
71456;SDS011;59263;48.160;11.752;2022-08-07T02:29:46;13.52;;;6.82;;
71456;SDS011;59263;48.160;11.752;2022-08-07T02:32:13;11.97;;;6.77;;
71456;SDS011;59263;48.160;11.752;2022-08-07T02:34:40;13.65;;;6.72;;
71456;SDS011;59263;48.160;11.752;2022-08-07T02:37:08;12.13;;;6.85;;
71456;SDS011;59263;48.160;11.752;2022-08-07T02:39:34;12.50;;;6.88;;
71456;SDS011;59263;48.160;11.752;2022-08-07T02:42:03;12.88;;;6.90;;
71456;SDS011;59263;48.160;11.752;2022-08-07T02:44:30;14.20;;;7.27;;
71456;SDS011;59263;48.160;11.752;2022-08-07T02:46:55;14.05;;;7.38;;
71456;SDS011;59263;48.160;11.752;2022-08-07T02:49:23;14.27;;;7.13;;
71456;SDS011;59263;48.160;11.752;2022-08-07T02:51:49;11.75;;;6.45;;
71456;SDS011;59263;48.160;11.752;2022-08-07T02:54:15;14.43;;;6.97;;
71456;SDS011;59263;48.160;11.752;2022-08-07T02:56:43;14.10;;;7.45;;
71456;SDS011;59263;48.160;11.752;2022-08-07T02:59:13;13.82;;;6.90;;
71456;SDS011;59263;48.160;11.752;2022-08-07T03:01:43;10.88;;;6.25;;
71456;SDS011;59263;48.160;11.752;2022-08-07T03:04:10;14.25;;;7.07;;
71456;SDS011;59263;48.160;11.752;2022-08-07T03:06:37;12.27;;;6.03;;
71456;SDS011;59263;48.160;11.752;2022-08-07T03:09:04;15.93;;;6.22;;
71456;SDS011;59263;48.160;11.752;2022-08-07T03:11:32;12.95;;;6.15;;
71456;SDS011;59263;48.160;11.752;2022-08-07T03:13:59;14.50;;;6.95;;
71456;SDS011;59263;48.160;11.752;2022-08-07T03:16:27;11.90;;;6.40;;
71456;SDS011;59263;48.160;11.752;2022-08-07T03:18:54;13.90;;;6.30;;
71456;SDS011;59263;48.160;11.752;2022-08-07T03:21:20;11.50;;;6.60;;
71456;SDS011;59263;48.160;11.752;2022-08-07T03:23:47;12.10;;;6.97;;
71456;SDS011;59263;48.160;11.752;2022-08-07T03:26:16;12.50;;;6.70;;
71456;SDS011;59263;48.160;11.752;2022-08-07T03:28:43;11.85;;;6.93;;
71456;SDS011;59263;48.160;11.752;2022-08-07T03:31:10;12.40;;;6.47;;
71456;SDS011;59263;48.160;11.752;2022-08-07T03:33:42;13.75;;;6.43;;
71456;SDS011;59263;48.160;11.752;2022-08-07T03:36:10;11.50;;;6.43;;
71456;SDS011;59263;48.160;11.752;2022-08-07T03:38:38;13.40;;;7.10;;
71456;SDS011;59263;48.160;11.752;2022-08-07T03:41:05;13.27;;;6.70;;
71456;SDS011;59263;48.160;11.752;2022-08-07T03:43:31;13.18;;;6.45;;
71456;SDS011;59263;48.160;11.752;2022-08-07T03:45:58;11.68;;;6.70;;
71456;SDS011;59263;48.160;11.752;2022-08-07T03:48:24;11.50;;;6.47;;
71456;SDS011;59263;48.160;11.752;2022-08-07T03:50:51;11.67;;;6.37;;
71456;SDS011;59263;48.160;11.752;2022-08-07T03:53:17;12.90;;;7.43;;
71456;SDS011;59263;48.160;11.752;2022-08-07T03:55:43;12.10;;;6.43;;
71456;SDS011;59263;48.160;11.752;2022-08-07T03:58:08;12.80;;;7.05;;
71456;SDS011;59263;48.160;11.752;2022-08-07T04:00:35;12.53;;;6.97;;
71456;SDS011;59263;48.160;11.752;2022-08-07T04:03:03;13.20;;;6.85;;
71456;SDS011;59263;48.160;11.752;2022-08-07T04:05:29;13.60;;;7.18;;
71456;SDS011;59263;48.160;11.752;2022-08-07T04:07:54;11.93;;;6.60;;
71456;SDS011;59263;48.160;11.752;2022-08-07T04:10:20;12.15;;;7.00;;
71456;SDS011;59263;48.160;11.752;2022-08-07T04:12:45;14.33;;;7.27;;
71456;SDS011;59263;48.160;11.752;2022-08-07T04:15:12;11.10;;;6.60;;
71456;SDS011;59263;48.160;11.752;2022-08-07T04:17:41;13.10;;;6.40;;
71456;SDS011;59263;48.160;11.752;2022-08-07T04:20:10;11.70;;;6.70;;
71456;SDS011;59263;48.160;11.752;2022-08-07T04:22:37;11.05;;;5.63;;
71456;SDS011;59263;48.160;11.752;2022-08-07T04:25:07;11.35;;;6.50;;
71456;SDS011;59263;48.160;11.752;2022-08-07T04:27:33;13.18;;;6.10;;
71456;SDS011;59263;48.160;11.752;2022-08-07T04:29:59;12.38;;;6.32;;
71456;SDS011;59263;48.160;11.752;2022-08-07T04:32:25;11.48;;;5.53;;
71456;SDS011;59263;48.160;11.752;2022-08-07T04:34:51;10.98;;;6.28;;
71456;SDS011;59263;48.160;11.752;2022-08-07T04:37:17;13.10;;;6.20;;
71456;SDS011;59263;48.160;11.752;2022-08-07T04:39:43;11.30;;;5.70;;
71456;SDS011;59263;48.160;11.752;2022-08-07T04:42:08;13.70;;;6.10;;
71456;SDS011;59263;48.160;11.752;2022-08-07T04:44:34;11.10;;;5.53;;
71456;SDS011;59263;48.160;11.752;2022-08-07T04:47:15;13.43;;;5.68;;
71456;SDS011;59263;48.160;11.752;2022-08-07T04:49:54;12.63;;;6.10;;
71456;SDS011;59263;48.160;11.752;2022-08-07T04:56:14;9.10;;;4.60;;
71456;SDS011;59263;48.160;11.752;2022-08-07T05:01:10;10.00;;;4.88;;
71456;SDS011;59263;48.160;11.752;2022-08-07T05:04:03;11.90;;;4.90;;
71456;SDS011;59263;48.160;11.752;2022-08-07T05:09:16;9.73;;;4.20;;
71456;SDS011;59263;48.160;11.752;2022-08-07T05:11:49;10.65;;;4.55;;
71456;SDS011;59263;48.160;11.752;2022-08-07T05:14:36;9.82;;;4.47;;
71456;SDS011;59263;48.160;11.752;2022-08-07T05:17:04;11.10;;;4.38;;
71456;SDS011;59263;48.160;11.752;2022-08-07T05:19:34;9.50;;;3.60;;
71456;SDS011;59263;48.160;11.752;2022-08-07T05:22:04;10.60;;;4.00;;
71456;SDS011;59263;48.160;11.752;2022-08-07T05:24:33;9.52;;;3.60;;
71456;SDS011;59263;48.160;11.752;2022-08-07T05:27:02;8.25;;;3.70;;
71456;SDS011;59263;48.160;11.752;2022-08-07T05:29:29;8.68;;;3.50;;
71456;SDS011;59263;48.160;11.752;2022-08-07T05:31:59;8.85;;;3.50;;
71456;SDS011;59263;48.160;11.752;2022-08-07T05:34:25;8.98;;;3.85;;
71456;SDS011;59263;48.160;11.752;2022-08-07T05:36:52;7.90;;;3.42;;
71456;SDS011;59263;48.160;11.752;2022-08-07T05:39:20;7.40;;;3.15;;
71456;SDS011;59263;48.160;11.752;2022-08-07T05:41:46;7.22;;;2.65;;
71456;SDS011;59263;48.160;11.752;2022-08-07T05:44:13;8.02;;;3.00;;
71456;SDS011;59263;48.160;11.752;2022-08-07T05:46:41;7.88;;;2.90;;
71456;SDS011;59263;48.160;11.752;2022-08-07T05:49:07;8.00;;;3.30;;
71456;SDS011;59263;48.160;11.752;2022-08-07T05:51:33;9.25;;;3.05;;
71456;SDS011;59263;48.160;11.752;2022-08-07T05:53:59;8.53;;;2.80;;
71456;SDS011;59263;48.160;11.752;2022-08-07T05:56:26;9.63;;;2.75;;
71456;SDS011;59263;48.160;11.752;2022-08-07T05:58:52;7.63;;;2.88;;
71456;SDS011;59263;48.160;11.752;2022-08-07T06:01:19;8.70;;;2.78;;
71456;SDS011;59263;48.160;11.752;2022-08-07T06:03:50;6.93;;;2.70;;
71456;SDS011;59263;48.160;11.752;2022-08-07T06:06:18;6.13;;;2.47;;
71456;SDS011;59263;48.160;11.752;2022-08-07T06:08:44;7.07;;;2.55;;
71456;SDS011;59263;48.160;11.752;2022-08-07T06:11:10;6.90;;;2.50;;
71456;SDS011;59263;48.160;11.752;2022-08-07T06:13:36;6.65;;;2.70;;
71456;SDS011;59263;48.160;11.752;2022-08-07T06:16:02;6.50;;;2.60;;
71456;SDS011;59263;48.160;11.752;2022-08-07T06:18:28;11.15;;;3.10;;
71456;SDS011;59263;48.160;11.752;2022-08-07T06:20:55;8.40;;;2.60;;
71456;SDS011;59263;48.160;11.752;2022-08-07T06:23:23;10.23;;;2.60;;
71456;SDS011;59263;48.160;11.752;2022-08-07T06:25:48;7.90;;;2.50;;
71456;SDS011;59263;48.160;11.752;2022-08-07T06:28:15;7.10;;;2.45;;
71456;SDS011;59263;48.160;11.752;2022-08-07T06:30:41;6.85;;;2.50;;
71456;SDS011;59263;48.160;11.752;2022-08-07T06:33:07;8.05;;;2.40;;
71456;SDS011;59263;48.160;11.752;2022-08-07T06:35:33;6.90;;;2.53;;
71456;SDS011;59263;48.160;11.752;2022-08-07T06:37:59;6.88;;;2.60;;
71456;SDS011;59263;48.160;11.752;2022-08-07T06:40:25;7.00;;;2.20;;
71456;SDS011;59263;48.160;11.752;2022-08-07T06:42:54;6.55;;;2.55;;
71456;SDS011;59263;48.160;11.752;2022-08-07T06:45:20;7.78;;;2.40;;
71456;SDS011;59263;48.160;11.752;2022-08-07T06:47:47;8.25;;;2.53;;
71456;SDS011;59263;48.160;11.752;2022-08-07T06:50:14;8.70;;;2.67;;
71456;SDS011;59263;48.160;11.752;2022-08-07T06:52:43;6.37;;;2.60;;
71456;SDS011;59263;48.160;11.752;2022-08-07T06:55:17;6.10;;;2.50;;
71456;SDS011;59263;48.160;11.752;2022-08-07T06:57:46;7.93;;;2.47;;
71456;SDS011;59263;48.160;11.752;2022-08-07T07:00:14;6.35;;;2.58;;
71456;SDS011;59263;48.160;11.752;2022-08-07T07:02:41;6.95;;;2.67;;
71456;SDS011;59263;48.160;11.752;2022-08-07T07:05:07;7.10;;;2.70;;
71456;SDS011;59263;48.160;11.752;2022-08-07T07:07:33;9.02;;;2.90;;
71456;SDS011;59263;48.160;11.752;2022-08-07T07:09:58;7.30;;;3.03;;
71456;SDS011;59263;48.160;11.752;2022-08-07T07:12:37;7.80;;;2.80;;
71456;SDS011;59263;48.160;11.752;2022-08-07T07:23:30;6.30;;;2.35;;
71456;SDS011;59263;48.160;11.752;2022-08-07T07:25:58;6.97;;;2.40;;
71456;SDS011;59263;48.160;11.752;2022-08-07T07:31:18;6.82;;;2.60;;
71456;SDS011;59263;48.160;11.752;2022-08-07T07:33:50;7.05;;;2.60;;
71456;SDS011;59263;48.160;11.752;2022-08-07T07:36:19;7.90;;;2.65;;
71456;SDS011;59263;48.160;11.752;2022-08-07T07:38:46;8.47;;;2.70;;
71456;SDS011;59263;48.160;11.752;2022-08-07T07:41:12;7.60;;;2.50;;
71456;SDS011;59263;48.160;11.752;2022-08-07T07:43:41;6.50;;;2.60;;
71456;SDS011;59263;48.160;11.752;2022-08-07T07:46:08;7.70;;;2.55;;
71456;SDS011;59263;48.160;11.752;2022-08-07T07:48:35;6.10;;;2.13;;
71456;SDS011;59263;48.160;11.752;2022-08-07T07:51:04;8.65;;;2.88;;
71456;SDS011;59263;48.160;11.752;2022-08-07T07:53:30;6.97;;;2.53;;
71456;SDS011;59263;48.160;11.752;2022-08-07T07:55:58;8.27;;;2.42;;
71456;SDS011;59263;48.160;11.752;2022-08-07T07:58:25;6.68;;;2.60;;
71456;SDS011;59263;48.160;11.752;2022-08-07T08:00:54;5.17;;;1.77;;
71456;SDS011;59263;48.160;11.752;2022-08-07T08:03:22;5.50;;;1.77;;
71456;SDS011;59263;48.160;11.752;2022-08-07T08:05:47;5.82;;;2.08;;
71456;SDS011;59263;48.160;11.752;2022-08-07T08:08:14;6.57;;;2.30;;
71456;SDS011;59263;48.160;11.752;2022-08-07T08:10:41;7.37;;;2.17;;
71456;SDS011;59263;48.160;11.752;2022-08-07T08:13:07;5.45;;;2.00;;
71456;SDS011;59263;48.160;11.752;2022-08-07T08:15:35;9.13;;;1.85;;
71456;SDS011;59263;48.160;11.752;2022-08-07T08:18:07;6.95;;;2.10;;
71456;SDS011;59263;48.160;11.752;2022-08-07T08:20:35;6.03;;;1.70;;
71456;SDS011;59263;48.160;11.752;2022-08-07T08:23:02;5.70;;;2.17;;
71456;SDS011;59263;48.160;11.752;2022-08-07T08:25:48;7.13;;;2.03;;
71456;SDS011;59263;48.160;11.752;2022-08-07T08:28:34;4.97;;;1.80;;
71456;SDS011;59263;48.160;11.752;2022-08-07T08:31:03;6.72;;;1.83;;
71456;SDS011;59263;48.160;11.752;2022-08-07T08:33:32;5.90;;;2.08;;
71456;SDS011;59263;48.160;11.752;2022-08-07T08:35:58;5.83;;;2.20;;
71456;SDS011;59263;48.160;11.752;2022-08-07T08:38:27;6.93;;;1.90;;
71456;SDS011;59263;48.160;11.752;2022-08-07T08:41:00;5.65;;;1.90;;
71456;SDS011;59263;48.160;11.752;2022-08-07T08:43:53;6.45;;;2.15;;
71456;SDS011;59263;48.160;11.752;2022-08-07T08:52:00;7.32;;;2.10;;
71456;SDS011;59263;48.160;11.752;2022-08-07T08:54:40;5.95;;;1.83;;
71456;SDS011;59263;48.160;11.752;2022-08-07T08:57:13;6.82;;;1.92;;
71456;SDS011;59263;48.160;11.752;2022-08-07T08:59:51;6.13;;;1.90;;
71456;SDS011;59263;48.160;11.752;2022-08-07T09:02:29;5.80;;;1.93;;
71456;SDS011;59263;48.160;11.752;2022-08-07T09:07:44;6.75;;;2.10;;
71456;SDS011;59263;48.160;11.752;2022-08-07T09:13:14;7.70;;;1.80;;
71456;SDS011;59263;48.160;11.752;2022-08-07T09:15:43;6.07;;;2.13;;
71456;SDS011;59263;48.160;11.752;2022-08-07T09:26:26;9.82;;;1.98;;
71456;SDS011;59263;48.160;11.752;2022-08-07T09:29:10;5.47;;;1.93;;
71456;SDS011;59263;48.160;11.752;2022-08-07T09:37:48;5.10;;;1.90;;
71456;SDS011;59263;48.160;11.752;2022-08-07T09:40:29;7.20;;;1.98;;
71456;SDS011;59263;48.160;11.752;2022-08-07T09:43:25;6.07;;;1.70;;
71456;SDS011;59263;48.160;11.752;2022-08-07T09:46:07;5.88;;;2.03;;
71456;SDS011;59263;48.160;11.752;2022-08-07T09:48:48;5.53;;;1.80;;
71456;SDS011;59263;48.160;11.752;2022-08-07T09:54:25;6.45;;;2.08;;
71456;SDS011;59263;48.160;11.752;2022-08-07T10:00:08;7.68;;;2.15;;
71456;SDS011;59263;48.160;11.752;2022-08-07T10:20:21;5.88;;;2.03;;
71456;SDS011;59263;48.160;11.752;2022-08-07T10:40:02;6.28;;;2.10;;
71456;SDS011;59263;48.160;11.752;2022-08-07T10:42:45;5.27;;;2.00;;
71456;SDS011;59263;48.160;11.752;2022-08-07T10:50:48;5.85;;;1.92;;
71456;SDS011;59263;48.160;11.752;2022-08-07T10:53:26;6.22;;;1.85;;
71456;SDS011;59263;48.160;11.752;2022-08-07T10:59:32;5.38;;;1.75;;
71456;SDS011;59263;48.160;11.752;2022-08-07T11:04:02;4.82;;;1.73;;
71456;SDS011;59263;48.160;11.752;2022-08-07T11:06:47;7.45;;;2.00;;
71456;SDS011;59263;48.160;11.752;2022-08-07T11:09:28;6.30;;;2.30;;
71456;SDS011;59263;48.160;11.752;2022-08-07T11:12:01;5.55;;;1.80;;
71456;SDS011;59263;48.160;11.752;2022-08-07T11:14:40;6.40;;;1.98;;
71456;SDS011;59263;48.160;11.752;2022-08-07T11:17:12;7.60;;;2.40;;
71456;SDS011;59263;48.160;11.752;2022-08-07T11:19:56;7.18;;;2.05;;
71456;SDS011;59263;48.160;11.752;2022-08-07T11:22:36;6.63;;;2.20;;
71456;SDS011;59263;48.160;11.752;2022-08-07T11:25:15;6.72;;;2.17;;
71456;SDS011;59263;48.160;11.752;2022-08-07T11:27:47;7.55;;;2.20;;
71456;SDS011;59263;48.160;11.752;2022-08-07T11:30:17;5.45;;;1.95;;
71456;SDS011;59263;48.160;11.752;2022-08-07T11:32:51;8.68;;;1.90;;
71456;SDS011;59263;48.160;11.752;2022-08-07T11:35:24;5.93;;;1.80;;
71456;SDS011;59263;48.160;11.752;2022-08-07T11:38:09;5.72;;;2.13;;
71456;SDS011;59263;48.160;11.752;2022-08-07T11:43:29;6.72;;;1.90;;
71456;SDS011;59263;48.160;11.752;2022-08-07T12:08:20;7.20;;;2.03;;
71456;SDS011;59263;48.160;11.752;2022-08-07T12:10:54;5.13;;;1.90;;
71456;SDS011;59263;48.160;11.752;2022-08-07T12:16:15;5.40;;;1.97;;
71456;SDS011;59263;48.160;11.752;2022-08-07T12:18:45;5.28;;;1.95;;
71456;SDS011;59263;48.160;11.752;2022-08-07T12:21:27;5.07;;;1.75;;
71456;SDS011;59263;48.160;11.752;2022-08-07T12:27:06;6.32;;;1.95;;
71456;SDS011;59263;48.160;11.752;2022-08-07T12:29:54;6.07;;;1.90;;
71456;SDS011;59263;48.160;11.752;2022-08-07T12:32:29;5.40;;;1.75;;
71456;SDS011;59263;48.160;11.752;2022-08-07T12:35:02;6.82;;;1.85;;
71456;SDS011;59263;48.160;11.752;2022-08-07T12:37:30;6.75;;;1.88;;
71456;SDS011;59263;48.160;11.752;2022-08-07T12:39:58;6.15;;;2.00;;
71456;SDS011;59263;48.160;11.752;2022-08-07T12:42:26;6.63;;;2.10;;
71456;SDS011;59263;48.160;11.752;2022-08-07T12:44:52;5.70;;;1.90;;
71456;SDS011;59263;48.160;11.752;2022-08-07T12:50:11;5.45;;;1.80;;
71456;SDS011;59263;48.160;11.752;2022-08-07T12:52:56;5.68;;;1.65;;
71456;SDS011;59263;48.160;11.752;2022-08-07T12:55:35;6.37;;;1.80;;
71456;SDS011;59263;48.160;11.752;2022-08-07T12:58:04;5.05;;;1.77;;
71456;SDS011;59263;48.160;11.752;2022-08-07T13:11:48;7.38;;;1.85;;
71456;SDS011;59263;48.160;11.752;2022-08-07T13:14:42;5.07;;;1.80;;
71456;SDS011;59263;48.160;11.752;2022-08-07T13:17:26;5.20;;;2.00;;
71456;SDS011;59263;48.160;11.752;2022-08-07T13:22:36;5.60;;;1.63;;
71456;SDS011;59263;48.160;11.752;2022-08-07T13:25:49;5.38;;;1.55;;
71456;SDS011;59263;48.160;11.752;2022-08-07T13:28:18;6.57;;;2.00;;
71456;SDS011;59263;48.160;11.752;2022-08-07T13:30:57;5.32;;;1.70;;
71456;SDS011;59263;48.160;11.752;2022-08-07T13:36:12;6.33;;;1.70;;
71456;SDS011;59263;48.160;11.752;2022-08-07T13:38:45;6.40;;;1.98;;
71456;SDS011;59263;48.160;11.752;2022-08-07T13:43:49;5.70;;;1.75;;
71456;SDS011;59263;48.160;11.752;2022-08-07T13:46:18;5.35;;;1.77;;
71456;SDS011;59263;48.160;11.752;2022-08-07T13:48:48;4.63;;;1.77;;
71456;SDS011;59263;48.160;11.752;2022-08-07T13:51:16;4.82;;;1.70;;
71456;SDS011;59263;48.160;11.752;2022-08-07T13:53:45;5.70;;;1.77;;
71456;SDS011;59263;48.160;11.752;2022-08-07T13:56:17;6.20;;;1.80;;
71456;SDS011;59263;48.160;11.752;2022-08-07T13:58:45;4.85;;;1.60;;
71456;SDS011;59263;48.160;11.752;2022-08-07T14:01:31;5.97;;;2.10;;
71456;SDS011;59263;48.160;11.752;2022-08-07T14:04:00;8.15;;;1.90;;
71456;SDS011;59263;48.160;11.752;2022-08-07T14:06:39;6.55;;;1.73;;
71456;SDS011;59263;48.160;11.752;2022-08-07T14:09:08;6.50;;;2.03;;
71456;SDS011;59263;48.160;11.752;2022-08-07T14:11:53;5.75;;;1.90;;
71456;SDS011;59263;48.160;11.752;2022-08-07T14:14:25;6.50;;;1.90;;
71456;SDS011;59263;48.160;11.752;2022-08-07T14:16:54;7.05;;;2.10;;
71456;SDS011;59263;48.160;11.752;2022-08-07T14:20:10;6.10;;;1.90;;
71456;SDS011;59263;48.160;11.752;2022-08-07T14:22:16;6.10;;;2.10;;
71456;SDS011;59263;48.160;11.752;2022-08-07T14:24:48;6.90;;;2.05;;
71456;SDS011;59263;48.160;11.752;2022-08-07T14:27:15;5.93;;;2.00;;
71456;SDS011;59263;48.160;11.752;2022-08-07T14:30:00;6.82;;;2.28;;
71456;SDS011;59263;48.160;11.752;2022-08-07T14:32:28;5.43;;;1.95;;
71456;SDS011;59263;48.160;11.752;2022-08-07T14:34:55;7.07;;;2.30;;
71456;SDS011;59263;48.160;11.752;2022-08-07T14:37:23;6.00;;;1.90;;
71456;SDS011;59263;48.160;11.752;2022-08-07T14:39:49;6.27;;;2.20;;
71456;SDS011;59263;48.160;11.752;2022-08-07T14:42:21;7.00;;;2.40;;
71456;SDS011;59263;48.160;11.752;2022-08-07T14:44:51;7.03;;;2.20;;
71456;SDS011;59263;48.160;11.752;2022-08-07T14:47:18;7.65;;;2.55;;
71456;SDS011;59263;48.160;11.752;2022-08-07T14:49:47;6.57;;;2.10;;
71456;SDS011;59263;48.160;11.752;2022-08-07T14:52:15;7.17;;;2.50;;
71456;SDS011;59263;48.160;11.752;2022-08-07T14:54:43;6.65;;;2.25;;
71456;SDS011;59263;48.160;11.752;2022-08-07T14:57:13;6.35;;;2.10;;
71456;SDS011;59263;48.160;11.752;2022-08-07T14:59:40;5.97;;;1.92;;
71456;SDS011;59263;48.160;11.752;2022-08-07T15:02:08;6.53;;;2.30;;
71456;SDS011;59263;48.160;11.752;2022-08-07T15:04:43;6.30;;;2.43;;
71456;SDS011;59263;48.160;11.752;2022-08-07T15:07:15;7.32;;;2.22;;
71456;SDS011;59263;48.160;11.752;2022-08-07T15:09:43;6.60;;;2.42;;
71456;SDS011;59263;48.160;11.752;2022-08-07T15:12:13;6.50;;;2.53;;
71456;SDS011;59263;48.160;11.752;2022-08-07T15:14:50;6.18;;;2.33;;
71456;SDS011;59263;48.160;11.752;2022-08-07T15:17:20;6.77;;;2.40;;
71456;SDS011;59263;48.160;11.752;2022-08-07T15:20:02;7.75;;;2.50;;
71456;SDS011;59263;48.160;11.752;2022-08-07T15:22:30;7.95;;;2.65;;
71456;SDS011;59263;48.160;11.752;2022-08-07T15:25:06;7.13;;;2.60;;
71456;SDS011;59263;48.160;11.752;2022-08-07T15:27:35;7.10;;;2.60;;
71456;SDS011;59263;48.160;11.752;2022-08-07T15:30:08;8.43;;;2.83;;
71456;SDS011;59263;48.160;11.752;2022-08-07T15:32:43;7.30;;;2.80;;
71456;SDS011;59263;48.160;11.752;2022-08-07T15:35:12;7.20;;;2.78;;
71456;SDS011;59263;48.160;11.752;2022-08-07T15:37:39;7.05;;;2.80;;
71456;SDS011;59263;48.160;11.752;2022-08-07T15:40:05;8.60;;;2.97;;
71456;SDS011;59263;48.160;11.752;2022-08-07T15:47:47;7.88;;;3.17;;
71456;SDS011;59263;48.160;11.752;2022-08-07T15:50:18;8.77;;;2.70;;
71456;SDS011;59263;48.160;11.752;2022-08-07T15:52:44;8.07;;;2.70;;
71456;SDS011;59263;48.160;11.752;2022-08-07T15:55:12;6.95;;;3.00;;
71456;SDS011;59263;48.160;11.752;2022-08-07T15:57:43;7.15;;;2.85;;
71456;SDS011;59263;48.160;11.752;2022-08-07T16:00:15;7.28;;;2.72;;
71456;SDS011;59263;48.160;11.752;2022-08-07T16:02:44;8.05;;;2.67;;
71456;SDS011;59263;48.160;11.752;2022-08-07T16:05:12;8.10;;;2.90;;
71456;SDS011;59263;48.160;11.752;2022-08-07T16:08:01;7.65;;;3.15;;
71456;SDS011;59263;48.160;11.752;2022-08-07T16:10:30;7.25;;;2.67;;
71456;SDS011;59263;48.160;11.752;2022-08-07T16:20:53;7.30;;;2.85;;
71456;SDS011;59263;48.160;11.752;2022-08-07T16:33:59;7.70;;;2.95;;
71456;SDS011;59263;48.160;11.752;2022-08-07T16:36:44;8.77;;;2.40;;
71456;SDS011;59263;48.160;11.752;2022-08-07T16:39:53;6.55;;;2.65;;
71456;SDS011;59263;48.160;11.752;2022-08-07T16:45:22;7.13;;;2.50;;
71456;SDS011;59263;48.160;11.752;2022-08-07T16:56:40;6.85;;;2.70;;
71456;SDS011;59263;48.160;11.752;2022-08-07T17:07:45;7.22;;;2.40;;
71456;SDS011;59263;48.160;11.752;2022-08-07T17:10:20;7.47;;;2.70;;
71456;SDS011;59263;48.160;11.752;2022-08-07T17:12:51;7.77;;;2.80;;
71456;SDS011;59263;48.160;11.752;2022-08-07T17:15:38;9.00;;;3.05;;
71456;SDS011;59263;48.160;11.752;2022-08-07T17:20:47;6.88;;;2.50;;
71456;SDS011;59263;48.160;11.752;2022-08-07T17:28:31;7.75;;;3.03;;
71456;SDS011;59263;48.160;11.752;2022-08-07T17:31:19;7.43;;;2.92;;
71456;SDS011;59263;48.160;11.752;2022-08-07T17:33:48;7.32;;;2.80;;
71456;SDS011;59263;48.160;11.752;2022-08-07T17:36:25;8.10;;;2.90;;
71456;SDS011;59263;48.160;11.752;2022-08-07T17:39:08;6.75;;;2.78;;
71456;SDS011;59263;48.160;11.752;2022-08-07T17:41:50;7.35;;;2.70;;
71456;SDS011;59263;48.160;11.752;2022-08-07T17:44:56;7.60;;;2.80;;
71456;SDS011;59263;48.160;11.752;2022-08-07T17:49:53;7.23;;;2.93;;
71456;SDS011;59263;48.160;11.752;2022-08-07T17:52:36;7.85;;;2.83;;
71456;SDS011;59263;48.160;11.752;2022-08-07T18:00:08;9.63;;;2.90;;
71456;SDS011;59263;48.160;11.752;2022-08-07T18:05:43;8.23;;;3.22;;
71456;SDS011;59263;48.160;11.752;2022-08-07T18:09:02;8.32;;;3.15;;
71456;SDS011;59263;48.160;11.752;2022-08-07T18:14:10;7.63;;;3.00;;
71456;SDS011;59263;48.160;11.752;2022-08-07T18:16:58;7.40;;;3.07;;
71456;SDS011;59263;48.160;11.752;2022-08-07T18:22:35;7.45;;;2.75;;
71456;SDS011;59263;48.160;11.752;2022-08-07T18:25:04;9.80;;;3.17;;
71456;SDS011;59263;48.160;11.752;2022-08-07T18:30:23;7.33;;;3.30;;
71456;SDS011;59263;48.160;11.752;2022-08-07T18:33:27;7.20;;;2.95;;